createdAt,value
2018-04-22T00:00:04.309Z,19.50
2018-04-22T00:02:31.752Z,19.23
2018-04-22T00:04:59.282Z,19.67
2018-04-22T00:07:26.730Z,21.70
2018-04-22T00:09:54.165Z,19.70
2018-04-22T00:12:21.628Z,18.98
2018-04-22T00:14:49.059Z,19.33
2018-04-22T00:17:16.500Z,20.50
2018-04-22T00:19:43.954Z,17.77
2018-04-22T00:22:11.405Z,18.40
2018-04-22T00:24:38.905Z,19.60
2018-04-22T00:27:06.358Z,18.60
2018-04-22T00:29:33.785Z,18.60
2018-04-22T00:32:01.221Z,20.00
2018-04-22T00:34:28.739Z,20.17
2018-04-22T00:36:56.165Z,20.33
2018-04-22T00:39:23.597Z,18.30
2018-04-22T00:41:51.111Z,19.40
2018-04-22T00:44:18.541Z,18.00
2018-04-22T00:46:45.981Z,19.53
2018-04-22T00:49:13.432Z,19.10
2018-04-22T00:51:40.886Z,18.07
2018-04-22T00:54:20.297Z,20.10
2018-04-22T00:56:47.903Z,19.80
2018-04-22T00:59:15.335Z,18.93
2018-04-22T01:01:42.789Z,19.87
2018-04-22T01:04:10.230Z,20.07
2018-04-22T01:06:37.687Z,19.37
2018-04-22T01:09:06.078Z,19.50
2018-04-22T01:11:33.517Z,19.27
2018-04-22T01:14:00.949Z,20.50
2018-04-22T01:16:28.399Z,20.60
2018-04-22T01:18:55.847Z,20.30
2018-04-22T01:21:23.340Z,20.33
2018-04-22T01:23:50.777Z,21.20
2018-04-22T01:26:18.209Z,21.13
2018-04-22T01:28:45.654Z,20.40
2018-04-22T01:31:13.101Z,21.03
2018-04-22T01:33:40.531Z,21.10
2018-04-22T01:36:07.963Z,20.77
2018-04-22T01:38:35.433Z,20.47
2018-04-22T01:41:02.870Z,19.90
2018-04-22T01:43:30.308Z,22.70
2018-04-22T01:45:57.801Z,20.23
2018-04-22T01:48:25.330Z,20.37
2018-04-22T01:50:52.802Z,19.73
2018-04-22T01:53:20.238Z,21.87
2018-04-22T01:55:47.680Z,20.73
2018-04-22T01:58:15.189Z,19.50
2018-04-22T02:00:42.634Z,19.00
2018-04-22T02:03:10.069Z,20.00
2018-04-22T02:05:37.562Z,18.57
2018-04-22T02:08:05.005Z,20.30
2018-04-22T02:10:32.478Z,20.70
2018-04-22T02:12:59.905Z,21.43
2018-04-22T02:15:27.355Z,21.20
2018-04-22T02:17:54.785Z,21.33
2018-04-22T02:20:22.221Z,21.37
2018-04-22T02:22:49.664Z,22.40
2018-04-22T02:25:17.102Z,22.17
2018-04-22T02:27:44.538Z,20.77
2018-04-22T02:30:12.692Z,23.85
2018-04-22T02:32:40.133Z,20.50
2018-04-22T02:35:07.678Z,19.47
2018-04-22T02:37:35.125Z,20.37
2018-04-22T02:40:02.570Z,21.07
2018-04-22T02:42:30.010Z,20.03
2018-04-22T02:44:57.488Z,23.83
2018-04-22T02:47:24.921Z,20.70
2018-04-22T02:49:52.353Z,19.97
2018-04-22T02:52:19.797Z,50.63
2018-04-22T02:54:47.234Z,31.30
2018-04-22T02:57:14.670Z,22.43
2018-04-22T02:59:42.133Z,20.57
2018-04-22T03:02:09.604Z,20.40
2018-04-22T03:04:37.038Z,22.87
2018-04-22T03:07:04.478Z,20.00
2018-04-22T03:09:31.953Z,20.77
2018-04-22T03:11:59.393Z,20.93
2018-04-22T03:14:26.837Z,20.97
2018-04-22T03:16:54.321Z,20.70
2018-04-22T03:19:21.784Z,22.50
2018-04-22T03:21:49.236Z,21.70
2018-04-22T03:24:16.708Z,20.60
2018-04-22T03:26:44.156Z,22.17
2018-04-22T03:29:11.612Z,22.67
2018-04-22T03:31:39.046Z,21.83
2018-04-22T03:34:06.536Z,21.60
2018-04-22T03:36:33.988Z,22.80
2018-04-22T03:39:01.422Z,20.57
2018-04-22T03:41:29.318Z,22.30
2018-04-22T03:43:56.866Z,23.80
2018-04-22T03:46:24.296Z,19.87
2018-04-22T03:48:51.736Z,22.37
2018-04-22T03:51:19.181Z,20.90
2018-04-22T03:53:46.609Z,21.60
2018-04-22T03:56:14.070Z,21.37
2018-04-22T03:58:41.508Z,22.50
2018-04-22T04:01:08.951Z,21.63
2018-04-22T04:03:36.389Z,24.50
2018-04-22T04:06:03.872Z,22.50
2018-04-22T04:08:31.304Z,21.70
2018-04-22T04:10:58.736Z,22.10
2018-04-22T04:13:26.180Z,23.63
2018-04-22T04:15:53.627Z,24.00
2018-04-22T04:31:58.939Z,20.40
2018-04-22T04:34:26.370Z,26.30
2018-04-22T04:36:53.816Z,24.03
2018-04-22T04:39:21.304Z,23.13
2018-04-22T04:41:48.761Z,24.50
2018-04-22T04:44:16.226Z,23.60
2018-04-22T04:46:43.674Z,22.17
2018-04-22T04:49:11.119Z,24.00
2018-04-22T04:51:38.569Z,23.57
2018-04-22T04:54:06.013Z,24.73
2018-04-22T04:56:33.445Z,25.17
2018-04-22T04:59:00.934Z,23.93
2018-04-22T05:01:28.429Z,23.17
2018-04-22T05:03:55.857Z,23.17
2018-04-22T05:06:23.322Z,22.23
2018-04-22T05:08:50.782Z,23.93
2018-04-22T05:11:18.222Z,24.50
2018-04-22T05:13:45.712Z,22.90
2018-04-22T05:16:13.165Z,22.03
2018-04-22T05:18:40.605Z,22.00
2018-04-22T05:21:08.049Z,24.37
2018-04-22T05:23:35.520Z,22.00
2018-04-22T05:26:02.962Z,21.83
2018-04-22T05:28:30.406Z,23.23
2018-04-22T05:30:57.862Z,22.10
2018-04-22T05:33:25.313Z,22.43
2018-04-22T05:35:52.808Z,22.43
2018-04-22T05:38:20.256Z,21.27
2018-04-22T05:40:47.725Z,21.30
2018-04-22T05:43:15.163Z,21.80
2018-04-22T05:45:42.608Z,21.17
2018-04-22T05:48:10.113Z,20.63
2018-04-22T05:50:37.554Z,21.43
2018-04-22T05:53:04.997Z,21.57
2018-04-22T05:55:32.424Z,21.43
2018-04-22T05:57:59.865Z,22.33
2018-04-22T06:00:27.397Z,20.73
2018-04-22T06:02:54.833Z,21.50
2018-04-22T06:05:22.266Z,21.80
2018-04-22T06:07:49.713Z,21.17
2018-04-22T06:10:17.162Z,22.33
2018-04-22T06:12:44.613Z,21.30
2018-04-22T06:15:12.065Z,22.20
2018-04-22T06:17:39.509Z,22.60
2018-04-22T06:20:06.944Z,22.03
2018-04-22T06:22:34.416Z,20.90
2018-04-22T06:25:01.857Z,21.57
2018-04-22T06:27:29.306Z,21.43
2018-04-22T06:29:56.750Z,21.43
2018-04-22T06:32:24.193Z,21.03
2018-04-22T06:34:51.668Z,21.30
2018-04-22T06:37:19.158Z,21.47
2018-04-22T06:39:46.608Z,22.00
2018-04-22T06:42:14.068Z,20.43
2018-04-22T06:44:41.522Z,22.67
2018-04-22T06:47:08.965Z,22.70
2018-04-22T06:49:36.398Z,21.53
2018-04-22T06:52:03.908Z,21.93
2018-04-22T06:54:31.353Z,22.53
2018-04-22T06:56:58.789Z,22.73
2018-04-22T06:59:26.339Z,22.90
2018-04-22T07:01:53.849Z,23.87
2018-04-22T07:04:21.285Z,21.30
2018-04-22T07:06:48.738Z,28.00
2018-04-22T07:09:16.187Z,24.43
2018-04-22T07:11:43.623Z,23.90
2018-04-22T07:14:11.093Z,27.50
2018-04-22T07:16:38.600Z,26.97
2018-04-22T07:19:06.050Z,26.17
2018-04-22T07:21:33.537Z,25.37
2018-04-22T07:24:00.995Z,25.00
2018-04-22T07:26:28.436Z,25.53
2018-04-22T07:28:55.884Z,25.00
2018-04-22T07:31:23.319Z,23.13
2018-04-22T07:33:50.768Z,26.03
2018-04-22T07:36:18.215Z,25.43
2018-04-22T07:38:45.652Z,26.00
2018-04-22T07:41:13.095Z,26.80
2018-04-22T07:43:40.545Z,24.93
2018-04-22T07:46:07.969Z,24.60
2018-04-22T07:48:35.405Z,25.80
2018-04-22T07:51:02.865Z,23.13
2018-04-22T07:53:30.357Z,23.40
2018-04-22T07:55:57.773Z,24.60
2018-04-22T07:58:25.241Z,24.50
2018-04-22T08:00:52.685Z,23.33
2018-04-22T08:03:20.160Z,22.80
2018-04-22T08:05:47.617Z,26.93
2018-04-22T08:08:15.058Z,25.60
2018-04-22T08:10:42.502Z,22.90
2018-04-22T08:13:09.940Z,22.87
2018-04-22T08:15:37.394Z,22.43
2018-04-22T08:18:04.858Z,25.03
2018-04-22T08:20:32.305Z,21.77
2018-04-22T08:22:59.736Z,22.47
2018-04-22T08:25:27.165Z,21.40
2018-04-22T08:27:54.630Z,20.33
2018-04-22T08:30:22.075Z,22.33
2018-04-22T08:32:49.533Z,22.70
2018-04-22T08:35:16.983Z,24.23
2018-04-22T08:37:44.423Z,22.17
2018-04-22T08:40:11.905Z,18.20
2018-04-22T08:42:39.367Z,19.63
2018-04-22T08:45:06.804Z,20.83
2018-04-22T08:47:34.247Z,20.33
2018-04-22T08:50:01.706Z,20.03
2018-04-22T08:52:29.175Z,21.27
2018-04-22T08:54:56.616Z,19.30
2018-04-22T08:57:24.066Z,20.07
2018-04-22T08:59:51.586Z,21.73
2018-04-22T09:02:19.024Z,21.77
2018-04-22T09:04:46.468Z,18.77
2018-04-22T09:07:13.907Z,21.33
2018-04-22T09:09:41.345Z,19.83
2018-04-22T09:12:08.861Z,18.67
2018-04-22T09:14:36.302Z,14.90
2018-04-22T09:17:03.755Z,20.07
2018-04-22T09:19:31.295Z,18.73
2018-04-22T09:21:58.839Z,17.37
2018-04-22T09:24:26.260Z,18.70
2018-04-22T09:26:53.714Z,17.20
2018-04-22T09:29:21.262Z,19.70
2018-04-22T09:31:48.719Z,18.60
2018-04-22T09:34:16.170Z,17.03
2018-04-22T09:36:43.608Z,18.13
2018-04-22T09:39:11.085Z,18.00
2018-04-22T09:41:38.545Z,16.47
2018-04-22T09:44:05.977Z,16.30
2018-04-22T09:46:33.429Z,19.17
2018-04-22T09:49:00.887Z,21.27
2018-04-22T09:51:28.321Z,21.57
2018-04-22T09:53:55.749Z,18.70
2018-04-22T09:56:23.200Z,19.20
2018-04-22T09:58:50.641Z,23.13
2018-04-22T10:01:20.055Z,20.80
2018-04-22T10:03:47.496Z,19.87
2018-04-22T10:06:14.928Z,18.03
2018-04-22T10:08:42.429Z,18.60
2018-04-22T10:11:09.877Z,19.07
2018-04-22T10:13:37.308Z,17.23
2018-04-22T10:16:04.740Z,19.73
2018-04-22T10:18:32.240Z,19.03
2018-04-22T10:20:59.678Z,20.27
2018-04-22T10:23:27.127Z,21.20
2018-04-22T10:25:54.569Z,20.93
2018-04-22T10:28:22.078Z,20.90
2018-04-22T10:30:49.512Z,17.47
2018-04-22T10:33:16.988Z,18.33
2018-04-22T10:35:44.438Z,18.80
2018-04-22T10:38:11.877Z,19.50
2018-04-22T10:40:39.336Z,15.87
2018-04-22T10:43:06.815Z,14.57
2018-04-22T10:45:34.249Z,15.43
2018-04-22T10:48:01.734Z,18.10
2018-04-22T10:50:29.193Z,17.60
2018-04-22T10:52:56.637Z,16.20
2018-04-22T10:55:24.101Z,16.00
2018-04-22T10:57:51.582Z,17.90
2018-04-22T11:00:18.984Z,14.70
2018-04-22T11:02:46.429Z,15.20
2018-04-22T11:05:13.861Z,14.33
2018-04-22T11:07:41.293Z,16.60
2018-04-22T11:10:08.753Z,13.53
2018-04-22T11:12:36.307Z,12.50
2018-04-22T11:15:03.737Z,12.07
2018-04-22T11:17:31.184Z,11.27
2018-04-22T11:19:58.680Z,13.10
2018-04-22T11:22:26.134Z,13.80
2018-04-22T11:24:53.584Z,13.90
2018-04-22T11:27:21.018Z,11.27
2018-04-22T11:29:48.460Z,10.70
2018-04-22T11:32:15.916Z,11.60
2018-04-22T11:34:43.433Z,15.07
2018-04-22T11:37:10.864Z,11.07
2018-04-22T11:39:38.304Z,9.50
2018-04-22T11:42:05.733Z,9.60
2018-04-22T11:44:33.250Z,8.80
2018-04-22T11:47:00.693Z,8.97
2018-04-22T11:49:28.158Z,8.38
2018-04-22T11:51:55.589Z,7.62
2018-04-22T11:54:23.030Z,7.28
2018-04-22T11:56:50.453Z,9.10
2018-04-22T11:59:17.957Z,10.68
2018-04-22T12:01:45.413Z,8.40
2018-04-22T12:04:12.919Z,7.20
2018-04-22T12:06:40.360Z,7.47
2018-04-22T12:09:07.797Z,7.22
2018-04-22T12:11:35.221Z,7.05
2018-04-22T12:14:02.729Z,8.05
2018-04-22T12:16:30.169Z,8.25
2018-04-22T12:18:57.600Z,6.97
2018-04-22T12:21:25.097Z,6.30
2018-04-22T12:23:52.532Z,6.82
2018-04-22T12:26:19.954Z,6.12
2018-04-22T12:28:47.387Z,19.58
2018-04-22T12:31:14.872Z,7.07
2018-04-22T12:33:42.306Z,6.30
2018-04-22T12:36:09.732Z,7.32
2018-04-22T12:38:37.194Z,7.30
2018-04-22T12:41:04.622Z,5.53
2018-04-22T12:43:32.078Z,7.12
2018-04-22T12:45:59.511Z,6.55
2018-04-22T12:48:26.950Z,6.30
2018-04-22T12:50:54.367Z,6.53
2018-04-22T12:53:21.940Z,5.32
2018-04-22T12:55:49.409Z,7.10
2018-04-22T12:58:16.916Z,8.35
2018-04-22T13:00:44.373Z,9.73
2018-04-22T13:03:11.797Z,7.35
2018-04-22T13:05:39.219Z,6.75
2018-04-22T13:08:06.649Z,6.85
2018-04-22T13:10:34.120Z,7.77
2018-04-22T13:13:01.541Z,7.12
2018-04-22T13:15:29.045Z,7.87
2018-04-22T13:17:56.505Z,7.47
2018-04-22T13:20:23.934Z,7.10
2018-04-22T13:22:51.425Z,7.10
2018-04-22T13:25:18.851Z,7.53
2018-04-22T13:27:46.343Z,6.60
2018-04-22T13:30:13.781Z,7.40
2018-04-22T13:32:41.208Z,6.78
2018-04-22T13:35:08.632Z,6.20
2018-04-22T13:37:36.064Z,6.97
2018-04-22T13:40:03.488Z,6.85
2018-04-22T13:42:30.909Z,6.65
2018-04-22T13:44:58.345Z,6.87
2018-04-22T13:47:25.772Z,7.10
2018-04-22T13:49:53.188Z,7.70
2018-04-22T13:52:20.652Z,12.48
2018-04-22T13:54:48.087Z,9.80
2018-04-22T13:57:15.520Z,6.32
2018-04-22T13:59:42.953Z,5.93
2018-04-22T14:02:10.386Z,6.85
2018-04-22T14:04:37.797Z,6.72
2018-04-22T14:07:05.238Z,5.82
2018-04-22T14:09:32.657Z,6.37
2018-04-22T14:12:00.085Z,6.85
2018-04-22T14:14:27.587Z,6.32
2018-04-22T14:16:55.011Z,7.00
2018-04-22T14:19:22.434Z,6.80
2018-04-22T14:21:49.875Z,8.25
2018-04-22T14:24:17.310Z,6.03
2018-04-22T14:26:44.731Z,6.55
2018-04-22T14:29:12.169Z,7.35
2018-04-22T14:31:39.640Z,8.18
2018-04-22T14:34:07.068Z,7.47
2018-04-22T14:36:34.521Z,7.37
2018-04-22T14:39:01.977Z,6.70
2018-04-22T14:41:30.621Z,6.37
2018-04-22T14:44:09.888Z,6.70
2018-04-22T14:46:37.572Z,7.43
2018-04-22T14:49:05.818Z,6.97
2018-04-22T14:51:33.269Z,6.55
2018-04-22T14:54:00.693Z,7.35
2018-04-22T14:56:28.197Z,6.93
2018-04-22T14:58:55.637Z,6.55
2018-04-22T15:01:23.064Z,5.67
2018-04-22T15:03:50.588Z,7.87
2018-04-22T15:06:18.028Z,7.23
2018-04-22T15:08:45.502Z,16.23
2018-04-22T15:11:12.931Z,6.90
2018-04-22T15:13:40.409Z,7.13
2018-04-22T15:16:07.833Z,7.10
2018-04-22T15:18:35.264Z,8.10
2018-04-22T15:21:02.700Z,7.33
2018-04-22T15:23:30.125Z,7.70
2018-04-22T15:25:57.553Z,7.67
2018-04-22T15:28:24.985Z,7.60
2018-04-22T15:30:52.420Z,7.10
2018-04-22T15:33:19.896Z,7.07
2018-04-22T15:35:47.420Z,7.27
2018-04-22T15:38:14.882Z,7.70
2018-04-22T15:40:42.302Z,7.07
2018-04-22T15:43:09.788Z,7.63
2018-04-22T15:45:37.253Z,7.30
2018-04-22T15:48:04.681Z,7.83
2018-04-22T15:50:32.119Z,8.57
2018-04-22T15:52:59.628Z,7.07
2018-04-22T15:55:27.067Z,7.63
2018-04-22T15:57:54.511Z,8.03
2018-04-22T16:00:22.002Z,7.37
2018-04-22T16:02:49.434Z,8.03
2018-04-22T16:05:16.903Z,8.33
2018-04-22T16:07:44.366Z,7.00
2018-04-22T16:10:11.792Z,7.90
2018-04-22T16:12:39.234Z,8.10
2018-04-22T16:15:06.677Z,7.80
2018-04-22T16:17:34.164Z,8.60
2018-04-22T16:20:01.654Z,7.60
2018-04-22T16:22:29.080Z,8.17
2018-04-22T16:24:56.525Z,8.37
2018-04-22T16:27:24.019Z,7.97
2018-04-22T16:29:51.479Z,7.43
2018-04-22T16:32:18.904Z,7.00
2018-04-22T16:34:46.352Z,8.50
2018-04-22T16:37:13.776Z,7.30
2018-04-22T16:39:41.313Z,8.20
2018-04-22T16:42:08.821Z,8.00
2018-04-22T16:44:36.322Z,7.63
2018-04-22T16:47:03.752Z,7.53
2018-04-22T16:49:31.189Z,8.30
2018-04-22T16:51:58.614Z,8.37
2018-04-22T16:54:26.046Z,7.67
2018-04-22T16:56:53.484Z,11.33
2018-04-22T16:59:20.914Z,8.20
2018-04-22T17:01:48.446Z,7.90
2018-04-22T17:04:15.889Z,11.03
2018-04-22T17:06:43.311Z,7.90
2018-04-22T17:09:10.725Z,8.40
2018-04-22T17:11:38.165Z,7.90
2018-04-22T17:14:05.589Z,8.30
2018-04-22T17:16:33.133Z,12.40
2018-04-22T17:19:00.617Z,7.90
2018-04-22T17:21:28.081Z,8.17
2018-04-22T17:23:55.521Z,9.07
2018-04-22T17:26:22.963Z,8.27
2018-04-22T17:28:50.389Z,8.50
2018-04-22T17:31:17.812Z,9.03
2018-04-22T17:33:45.260Z,8.03
2018-04-22T17:36:12.729Z,8.17
2018-04-22T17:38:40.162Z,8.80
2018-04-22T17:41:07.619Z,8.60
2018-04-22T17:43:35.097Z,8.03
2018-04-22T17:46:02.585Z,8.60
2018-04-22T17:48:30.053Z,8.90
2018-04-22T17:50:57.489Z,13.80
2018-04-22T17:53:24.985Z,9.10
2018-04-22T17:55:52.466Z,9.23
2018-04-22T17:58:19.905Z,9.00
2018-04-22T18:00:47.329Z,8.10
2018-04-22T18:03:14.820Z,8.40
2018-04-22T18:05:42.259Z,11.60
2018-04-22T18:08:09.718Z,35.27
2018-04-22T18:10:37.174Z,14.10
2018-04-22T18:13:04.639Z,10.50
2018-04-22T18:15:32.206Z,9.83
2018-04-22T18:17:59.653Z,11.33
2018-04-22T18:20:27.102Z,9.07
2018-04-22T18:22:54.553Z,9.30
2018-04-22T18:25:22.009Z,9.30
2018-04-22T18:27:49.515Z,14.30
2018-04-22T18:30:16.932Z,30.60
2018-04-22T18:32:44.383Z,9.50
2018-04-22T18:35:11.898Z,8.43
2018-04-22T18:37:39.352Z,10.20
2018-04-22T18:40:06.794Z,8.87
2018-04-22T18:42:35.089Z,10.20
2018-04-22T18:45:02.576Z,12.70
2018-04-22T18:47:30.096Z,18.70
2018-04-22T18:49:57.545Z,11.57
2018-04-22T18:52:24.988Z,23.73
2018-04-22T18:54:52.472Z,13.20
2018-04-22T18:57:19.930Z,12.10
2018-04-22T18:59:47.388Z,11.13
2018-04-22T19:02:14.910Z,10.53
2018-04-22T19:04:42.434Z,12.90
2018-04-22T19:07:09.876Z,14.93
2018-04-22T19:09:37.325Z,10.00
2018-04-22T19:12:04.761Z,11.60
2018-04-22T19:14:32.197Z,10.90
2018-04-22T19:16:59.690Z,11.97
2018-04-22T19:19:27.122Z,11.63
2018-04-22T19:21:54.601Z,10.97
2018-04-22T19:24:22.071Z,10.10
2018-04-22T19:26:49.509Z,10.47
2018-04-22T19:29:16.937Z,10.83
2018-04-22T19:31:44.375Z,10.47
2018-04-22T19:34:11.813Z,11.37
2018-04-22T19:36:39.240Z,10.43
2018-04-22T19:39:06.686Z,25.63
2018-04-22T19:41:34.180Z,22.33
2018-04-22T19:44:01.610Z,14.20
2018-04-22T19:46:29.058Z,14.80
2018-04-22T19:48:56.489Z,27.77
2018-04-22T19:51:23.926Z,14.60
2018-04-22T19:53:51.381Z,11.37
2018-04-22T19:56:18.810Z,11.93
2018-04-22T19:58:46.345Z,12.17
2018-04-22T20:01:13.814Z,15.33
2018-04-22T20:03:41.248Z,12.07
2018-04-22T20:06:08.690Z,12.10
2018-04-22T20:08:36.138Z,12.40
2018-04-22T20:11:03.633Z,11.90
2018-04-22T20:13:31.069Z,10.73
2018-04-22T20:15:58.551Z,12.80
2018-04-22T20:18:25.986Z,14.13
2018-04-22T20:20:53.437Z,13.70
2018-04-22T20:23:20.881Z,13.50
2018-04-22T20:25:48.379Z,14.27
2018-04-22T20:28:15.825Z,12.33
2018-04-22T20:30:43.285Z,12.27
2018-04-22T20:33:10.721Z,19.70
2018-04-22T20:35:38.375Z,13.80
2018-04-22T20:38:06.032Z,13.17
2018-04-22T20:40:33.682Z,12.80
2018-04-22T20:43:01.248Z,12.93
2018-04-22T20:45:28.854Z,12.27
2018-04-22T20:47:56.377Z,12.67
2018-04-22T20:50:23.904Z,12.87
2018-04-22T20:52:51.364Z,14.30
2018-04-22T20:55:18.820Z,13.23
2018-04-22T20:57:46.337Z,13.67
2018-04-22T21:00:13.810Z,13.77
2018-04-22T21:02:41.245Z,13.07
2018-04-22T21:05:08.714Z,14.70
2018-04-22T21:07:36.162Z,14.10
2018-04-22T21:10:03.608Z,14.23
2018-04-22T21:12:31.081Z,15.13
2018-04-22T21:14:58.645Z,13.13
2018-04-22T21:17:26.101Z,12.13
2018-04-22T21:19:53.608Z,12.70
2018-04-22T21:22:21.058Z,13.50
2018-04-22T21:24:48.522Z,12.83
2018-04-22T21:27:15.959Z,18.97
2018-04-22T21:29:43.487Z,14.40
2018-04-22T21:32:10.930Z,20.03
2018-04-22T21:34:38.378Z,13.20
2018-04-22T21:37:05.866Z,14.13
2018-04-22T21:39:33.302Z,13.07
2018-04-22T21:42:00.779Z,12.60
2018-04-22T21:44:28.224Z,15.20
2018-04-22T21:46:55.659Z,14.13
2018-04-22T21:49:23.098Z,13.13
2018-04-22T21:51:50.597Z,12.80
2018-04-22T21:54:18.031Z,13.50
2018-04-22T21:56:45.507Z,15.17
2018-04-22T21:59:12.997Z,14.20
2018-04-22T22:01:40.436Z,14.00
2018-04-22T22:04:07.865Z,13.87
2018-04-22T22:06:35.316Z,14.63
2018-04-22T22:09:02.757Z,14.33
2018-04-22T22:11:30.193Z,14.23
2018-04-22T22:13:57.641Z,15.30
2018-04-22T22:16:25.077Z,13.30
2018-04-22T22:18:52.515Z,13.67
2018-04-22T22:21:20.003Z,13.83
2018-04-22T22:23:47.420Z,15.23
2018-04-22T22:26:14.853Z,16.10
2018-04-22T22:28:42.305Z,16.83
2018-04-22T22:31:09.816Z,15.20
2018-04-22T22:33:37.246Z,16.57
2018-04-22T22:36:04.727Z,16.30
2018-04-22T22:38:32.159Z,15.87
2018-04-22T22:40:59.592Z,15.07
2018-04-22T22:43:27.042Z,15.73
2018-04-22T22:45:54.482Z,15.60
2018-04-22T22:48:21.911Z,14.70
2018-04-22T22:50:49.364Z,15.70
2018-04-22T22:53:16.803Z,15.17
2018-04-22T22:55:44.249Z,15.93
2018-04-22T22:58:11.733Z,14.97
2018-04-22T23:00:39.171Z,14.60
2018-04-22T23:03:06.609Z,15.50
2018-04-22T23:05:34.045Z,15.70
2018-04-22T23:08:01.477Z,16.02
2018-04-22T23:10:28.924Z,15.70
2018-04-22T23:12:56.373Z,17.13
2018-04-22T23:15:23.902Z,15.60
2018-04-22T23:17:51.365Z,16.93
2018-04-22T23:20:18.863Z,16.17
2018-04-22T23:22:46.300Z,16.73
2018-04-22T23:25:13.767Z,17.73
2018-04-22T23:27:41.212Z,16.90
2018-04-22T23:30:08.654Z,17.30
2018-04-22T23:32:36.088Z,15.00
2018-04-22T23:35:03.534Z,17.37
2018-04-22T23:37:30.972Z,17.90
2018-04-22T23:39:58.406Z,16.57
2018-04-22T23:42:25.859Z,17.73
2018-04-22T23:44:53.298Z,16.90
2018-04-22T23:47:20.733Z,16.20
2018-04-22T23:49:48.181Z,17.17
2018-04-22T23:52:15.788Z,17.70
2018-04-22T23:54:43.229Z,16.37
2018-04-22T23:57:10.673Z,18.90
2018-04-22T23:59:38.111Z,17.33
